الصفحة الرئيسية
METAR-TAF:

METAR-TAF

مطار :

كيرنز, أستراليا

دائرة عرض: 16-53S, خط طول: 145-45E, ارتفاع: 3 متر

مراقبة الطقس الحالي

تاريخ ووقت الإصدار 22 دقيقة قبل الساعة 12:00UTC
ريح 3 عقدة من الجنوب
درجة الحرارة 26°درجة مئوية
الرطوبة 79%
ضغط 1005 hPa
الرؤية 10 كم أو أكثر

METAR: YBCS 261200Z AUTO 17003KT 9999 // NCD 26/22 Q1005

زمن: 22:22 (12:22 UTC)

توقعات

تاريخ ووقت الإصدار 1ساعة و 9 دقيقة قبل الساعة 11:13UTC
التوقعات صالحة من26 الساعة 12 UTC إلى 27 الساعة 12 UTC
ريح 3 عقدة من الجنوب
الرؤية 10 كم أو أكثر
غيوم متفرقة على ارتفاع 2500 قدم
من 26 الساعة 2300 UTC
ريح 5 عقدة من الشرق
الرؤية 10 كم أو أكثر
غيوم قليلة على ارتفاع 3000 قدم
من 27 الساعة 0200 UTC
ريح 6 عقدة من الشرق/الشمال الشرقي
الرؤية 10 كم أو أكثر
الغيوم لا تقل 1500 م ولا وجود لمزنة ركامية السحاب الأسود
من 27 الساعة 1000 UTC
ريح 7 عقدة من الجنوب/الجنوب الشرقي
الرؤية 10 كم أو أكثر
غيوم متفرقة على ارتفاع 2500 قدم

TAF: YBCS 261113Z 2612/2712 17003KT 9999 SCT025 FM262300 10005KT 9999 FEW030 FM270200 07006KT CAVOK FM271000 16007KT 9999 SCT025

أرصاد الطقس والتوقعات من أكثر من 4000 مطار (تقارير الطقس للمطار METAR والتنبؤ بالطقس بالمطارTAF).

المحطات المتاحة هي النقط الصفراء والحمراء على الخريطة.

حرك المؤشر فوق النقطة لمعرفة اسم المحطة.

ثم انقر لمعرفة أرصاد وتوقعات الطقس.

لتغيير الخارطة: اضغط على الأزرار الخضراء مع رمز الصليب الأسود للتكبير. على الزر الأخضر مع شرطة للتصغير، أو على الأسهم الخضراء للخرائط المجاورة.


METAR-TAF: